Latest Coastal Weather Observations for Portland Airport

IDS60701

Issued at 9:31 pm CST Friday 26 August 2016 (issued every 10 minutes, with the page automatically refreshed every 10 minutes)

About coastal observations | Map of coastal stations | Coastal observations for SA | Marine services | Other Formats
Station Details ID: 090171 Name: CASHMORE AIRPORT Lat: -38.31 Lon: 141.47 Height: 80.9 m
Data from the previous 72 hours. | See also: Recent months at Portland Airport
Date/Time
CST
Temp
°C
Wind Pressure Rain since
9am
mm
Weather Cloud Vis
km
Sea
Height
m
Swell
Dir  Spd
kts
Gust
kts
hPa Trend Height
m
Period
s
Dir
26/09:30pm 8.9 NW 8 13 1021.6 - 1.4 - Partly cloudy 10 - - - -
26/09:00pm 9.1 NW 11 14 1021.5 - 1.4 - Partly cloudy 10 - - - -
26/08:30pm 9.0 NW 9 12 1021.5 - 1.4 - Cloudy 10 - - - -
26/08:00pm 8.9 NW 9 11 1021.6 - 1.4 - Partly cloudy 10 - - - -
26/07:30pm 9.0 NW 9 13 1021.5 - 1.4 - Partly cloudy 10 - - - -
26/07:00pm 9.4 NNW 9 14 1021.4 - 1.4 - Partly cloudy 10 - - - -
26/06:30pm 9.4 WNW 11 15 1021.4 - 1.4 - Partly cloudy 10 - - - -
26/06:00pm 9.8 WNW 12 17 1021.2 - 1.4 - Partly cloudy 10 - - - -
26/05:30pm 10.2 WNW 10 14 1020.8 - 1.0 - Cloudy 10 - - - -
26/05:00pm 9.8 W 15 21 1020.9 - 1.0 - Partly cloudy 10 - - - -
26/04:30pm 10.1 WNW 12 18 1020.7 - 1.0 - Partly cloudy 10 - - - -
26/04:00pm 11.2 W 14 19 1020.6 - 0.6 - Partly cloudy 10 - - - -
26/03:30pm 11.0 WNW 11 15 1020.5 - 0.6 - Partly cloudy 10 - - - -
26/03:00pm 10.7 WNW 12 18 1020.4 - 0.6 - Partly cloudy 10 - - - -
26/02:30pm 10.9 W 13 18 1020.4 - 0.6 - Cloudy 10 - - - -
26/02:00pm 11.2 W 14 19 1020.6 - 0.6 - Partly cloudy 10 - - - -
26/01:30pm 11.4 W 16 21 1020.6 - 0.6 - Partly cloudy 10 - - - -
26/01:00pm 11.9 WNW 14 23 1021.0 - 0.6 - Cloudy 10 - - - -
26/12:30pm 12.6 WNW 16 23 1021.1 - 0.6 - Partly cloudy 10 - - - -
26/12:00pm 11.8 WNW 14 20 1021.5 - 0.6 - Partly cloudy 10 - - - -
26/11:30am 11.1 NW 12 17 1021.8 - 0.6 Recent precip. Partly cloudy 10 - - - -
26/11:00am 10.2 WNW 13 16 1022.0 - 0.6 - Partly cloudy 10 - - - -
26/10:45am 9.5 NW 9 18 1022.2 - 0.6 - Partly cloudy 6 - - - -
26/10:30am 9.5 W 7 10 1022.3 - 0.2 - Partly cloudy 10 - - - -
26/10:06am 9.9 NW 14 19 1022.3 - 0.0 - Partly cloudy 6 - - - -
26/10:00am 10.2 NW 13 19 1022.3 - 0.0 - Partly cloudy 10 - - - -
26/09:30am 10.7 WNW 12 16 1022.4 - 0.0 - Partly cloudy 10 - - - -
26/09:00am 10.8 NW 11 14 1022.2 - 0.0 - Partly cloudy 10 - - - -
26/08:30am 9.4 NNW 7 10 1022.2 - 0.0 - Cloudy 10 - - - -
26/08:00am 8.8 NNW 7 12 1022.2 - 0.0 - Partly cloudy 10 - - - -
26/07:30am 8.4 NNW 4 8 1022.1 - 0.0 - Partly cloudy 10 - - - -
26/07:00am 8.9 NW 5 6 1021.6 - 0.0 - Cloudy 10 - - - -
26/06:30am 9.4 WNW 7 9 1021.4 - 0.0 - Partly cloudy 10 - - - -
26/06:00am 9.3 WSW 8 10 1021.4 - 0.0 - Cloudy 10 - - - -
26/05:30am 9.2 W 8 10 1021.1 - 0.0 - Cloudy 10 - - - -
26/05:00am 9.3 W 10 14 1021.1 - 0.0 - Cloudy 10 - - - -
26/04:30am 9.4 SW 8 11 1020.9 - 0.0 - Cloudy 10 - - - -
26/04:00am 8.9 WSW 6 8 1020.7 - 0.0 - Cloudy 10 - - - -
26/03:30am 7.4 W 4 5 1020.5 - 0.0 - Cloudy 10 - - - -
26/03:00am 7.9 WSW 5 7 1020.4 - 0.0 - Cloudy 10 - - - -
26/02:30am 8.3 WSW 7 10 1020.5 - 0.0 - Partly cloudy 10 - - - -
26/02:00am 8.9 WSW 7 9 1020.6 - 0.0 - Cloudy 10 - - - -
26/01:30am 9.0 SW 8 10 1020.7 - 0.0 - Partly cloudy 10 - - - -
26/01:00am 9.0 SW 6 8 1020.7 - 0.0 - Partly cloudy 10 - - - -
26/12:30am 8.3 W 5 6 1020.7 - 0.0 - Partly cloudy 10 - - - -
26/12:00am 8.0 W 4 6 1020.8 - 0.0 - Partly cloudy 10 - - - -
 
Date/Time
CST
Temp
°C
Wind Pressure Rain since
9am
mm
Weather Cloud Vis
km
Sea
Height
m
Swell
Dir  Spd
kts
Gust
kts
hPa Trend Height
m
Period
s
Dir
25/11:30pm 6.6 WSW 4 5 1020.8 - 0.0 - Cloudy 10 - - - -
25/11:00pm 5.9 WSW 3 4 1020.8 - 0.0 - Partly cloudy 10 - - - -
25/10:30pm 6.1 WSW 4 6 1020.9 - 0.0 - Partly cloudy 10 - - - -
25/10:00pm 6.2 SW 4 5 1021.1 - 0.0 - Partly cloudy 10 - - - -
25/09:30pm 7.0 SW 5 6 1021.0 - 0.0 - - 10 - - - -
25/09:00pm 7.0 SW 5 7 1021.0 - 0.0 - - 10 - - - -
25/08:30pm 7.4 WSW 5 7 1020.8 - 0.0 - Mostly clear 10 - - - -
25/08:00pm 8.8 SW 6 8 1020.7 - 0.0 - Partly cloudy 10 - - - -
25/07:30pm 8.2 WSW 6 9 1020.5 - 0.0 - - 10 - - - -
25/07:00pm 8.8 SW 6 7 1020.2 - 0.0 - Partly cloudy 10 - - - -
25/06:30pm 9.4 WSW 7 9 1020.0 - 0.0 - Cloudy 10 - - - -
25/06:00pm 9.5 SW 6 8 1019.7 - 0.0 - Partly cloudy 10 - - - -
25/05:30pm 9.6 SW 7 9 1019.5 - 0.0 - Cloudy 10 - - - -
25/05:00pm 10.4 SW 7 10 1019.1 - 0.0 - Cloudy 10 - - - -
25/04:30pm 10.1 SW 9 13 1018.8 - 0.0 - Partly cloudy 10 - - - -
25/04:00pm 10.8 SW 10 16 1018.6 - 0.0 - Partly cloudy 10 - - - -
25/03:30pm 10.8 SW 10 14 1018.5 - 0.0 - Partly cloudy 10 - - - -
25/03:00pm 10.7 SW 7 11 1018.5 - 0.0 - Partly cloudy 10 - - - -
25/02:30pm 11.8 SW 10 16 1018.4 - 0.0 - Partly cloudy 10 - - - -
25/02:00pm 11.2 SSW 8 15 1018.1 - 0.0 - Partly cloudy 10 - - - -
25/01:30pm 11.5 SSW 9 15 1018.0 - 0.0 - Partly cloudy 10 - - - -
25/01:00pm 10.8 SSW 10 17 1018.1 - 0.0 - Partly cloudy 10 - - - -
25/12:30pm 12.3 SSW 7 10 1018.2 - 0.0 - Partly cloudy 10 - - - -
25/12:00pm 11.2 S 7 13 1018.2 - 0.0 - Partly cloudy 10 - - - -
25/11:30am 10.2 SSW 8 12 1018.4 - 0.0 - Cloudy 10 - - - -
25/11:00am 11.1 SSW 9 15 1018.3 - 0.0 - - 10 - - - -
25/10:30am 11.0 SW 9 13 1018.3 - 0.0 - Partly cloudy 10 - - - -
25/10:00am 10.0 SW 9 14 1018.2 - 0.0 - Partly cloudy 10 - - - -
25/09:30am 10.5 SW 8 11 1017.8 - 0.0 - Partly cloudy 10 - - - -
25/09:00am 10.2 SSW 6 10 1017.6 - 0.0 - Partly cloudy 10 - - - -
25/08:30am 10.0 SSW 7 11 1017.6 - 4.2 - Mostly clear 10 - - - -
25/08:00am 9.3 SW 7 10 1017.4 - 4.2 - Partly cloudy 10 - - - -
25/07:30am 8.5 SSW 6 12 1017.2 - 4.2 - Partly cloudy 10 - - - -
25/07:00am 8.0 SSW 7 13 1016.7 - 4.2 - Partly cloudy 10 - - - -
25/06:30am 7.6 SSW 4 7 1016.3 - 4.2 - Partly cloudy 10 - - - -
25/06:18am 7.4 S 5 9 1016.3 - 4.2 - Partly cloudy 10 - - - -
25/06:00am 8.0 SSW 6 12 1016.1 - 4.0 - Partly cloudy 5 - - - -
25/05:30am 7.9 SW 10 15 1015.9 - 2.6 Rain Cloudy 10 - - - -
25/05:00am 9.2 SSW 8 13 1015.4 - 1.0 - Partly cloudy 10 - - - -
25/04:30am 9.1 SSW 8 13 1015.2 - 1.0 - Partly cloudy 10 - - - -
25/04:00am 8.4 SW 8 12 1015.0 - 1.0 - Partly cloudy 10 - - - -
25/03:30am 8.2 SW 7 10 1015.0 - 1.0 - Partly cloudy 10 - - - -
25/03:00am 8.0 SW 8 10 1015.1 - 1.0 - - 10 - - - -
25/02:30am 8.5 SW 7 10 1015.2 - 1.0 - Mostly clear 10 - - - -
25/02:00am 8.8 SW 8 13 1015.3 - 1.0 - Partly cloudy 10 - - - -
25/01:30am 8.7 SW 7 11 1015.4 - 1.0 - Partly cloudy 10 - - - -
25/01:00am 9.0 SSW 9 15 1015.4 - 1.0 - Partly cloudy 10 - - - -
25/12:30am 8.3 SW 6 8 1015.5 - 1.0 - Partly cloudy 10 - - - -
25/12:00am 8.0 WSW 8 10 1015.7 - 1.0 - Partly cloudy 10 - - - -
 
Date/Time
CST
Temp
°C
Wind Pressure Rain since
9am
mm
Weather Cloud Vis
km
Sea
Height
m
Swell
Dir  Spd
kts
Gust
kts
hPa Trend Height
m
Period
s
Dir
24/11:30pm 7.7 W 6 7 1015.8 - 1.0 Recent precip. Cloudy 10 - - - -
24/11:00pm 8.3 SW 9 15 1016.1 - 0.8 - Partly cloudy 10 - - - -
24/10:30pm 8.0 WSW 7 9 1016.1 - 0.6 - Partly cloudy 10 - - - -
24/10:00pm 8.8 WSW 6 9 1016.2 - 0.4 - Partly cloudy 10 - - - -
24/09:30pm 8.7 SW 6 8 1016.4 - 0.4 - Cloudy 10 - - - -
24/09:00pm 8.4 WSW 5 7 1016.6 - 0.4 - Partly cloudy 10 - - - -
24/08:30pm 7.6 SW 5 8 1016.7 - 0.4 - Cloudy 10 - - - -
24/08:00pm 7.2 SW 3 4 1016.6 - 0.4 - Partly cloudy 10 - - - -
24/07:30pm 7.6 SW 4 5 1016.7 - 0.4 - Partly cloudy 10 - - - -
24/07:00pm 8.6 SSW 8 12 1016.9 - 0.2 - Partly cloudy 10 - - - -
24/06:30pm 8.5 SSW 5 7 1016.6 - 0.2 - Partly cloudy 10 - - - -
24/06:00pm 8.3 SSW 4 6 1016.5 - 0.2 - Partly cloudy 10 - - - -
24/05:30pm 8.9 SSW 5 7 1016.3 - 0.2 Recent precip. - 10 - - - -
24/05:00pm 9.9 SSW 6 9 1016.2 - 0.2 - Partly cloudy 10 - - - -
24/04:30pm 9.7 S 7 14 1016.1 - 0.0 - Partly cloudy 10 - - - -
24/04:00pm 10.8 S 6 9 1015.9 - 0.0 - Partly cloudy 10 - - - -
24/03:30pm 11.0 S 6 27 1015.9 - 0.0 - Partly cloudy 10 - - - -
24/03:00pm 11.0 SSW 6 10 1016.0 - 0.0 - Partly cloudy 10 - - - -
24/02:30pm 10.8 SSW 7 11 1015.9 - 0.0 - Partly cloudy 10 - - - -
24/02:00pm 10.9 SSW 7 10 1015.9 - 0.0 - Partly cloudy 10 - - - -
24/01:30pm 10.5 S 8 11 1016.0 - 0.0 - Partly cloudy 10 - - - -
24/01:00pm 10.5 SSW 8 14 1016.1 - 0.0 - Partly cloudy 10 - - - -
24/12:30pm 11.4 S 8 13 1016.4 - 0.0 - Partly cloudy 10 - - - -
24/12:00pm 11.5 SSE 8 12 1016.5 - 0.0 - Partly cloudy 10 - - - -
24/11:30am 10.5 S 7 12 1016.8 - 0.0 - Cloudy 10 - - - -
24/11:00am 10.3 SSE 6 10 1017.2 - 0.0 - Partly cloudy 10 - - - -
24/10:30am 10.4 S 6 9 1017.2 - 0.0 - Partly cloudy 10 - - - -
24/10:00am 10.2 SSE 6 10 1017.3 - 0.0 - Partly cloudy 10 - - - -
24/09:30am 10.0 SSE 5 8 1017.6 - 0.0 - Partly cloudy 10 - - - -
24/09:00am 10.3 ESE 2 4 1017.7 - 0.0 - Partly cloudy 10 - - - -
24/08:30am 8.3 CALM 0 0 1018.0 - 0.0 - Cloudy 10 - - - -
24/08:00am 7.9 ESE 5 7 1017.9 - 0.0 - Partly cloudy 10 - - - -
24/07:30am 5.8 CALM 0 0 1017.6 - 0.0 - Partly cloudy 10 - - - -
24/07:00am 5.0 CALM 0 0 1017.5 - 0.0 - Partly cloudy 10 - - - -
24/06:30am 4.4 CALM 0 0 1017.4 - 0.0 - Partly cloudy 10 - - - -
24/06:00am 4.2 CALM 0 0 1017.2 - 0.0 - Partly cloudy 10 - - - -
24/05:30am 4.6 CALM 0 0 1017.2 - 0.0 - Mostly cloudy 10 - - - -
24/05:00am 4.8 NNE 1 3 1017.1 - 0.0 - Cloudy 10 - - - -
24/04:30am 4.7 CALM 0 3 1017.1 - 0.0 - Partly cloudy 10 - - - -
24/04:00am 4.7 CALM 0 0 1017.1 - 0.0 - Cloudy 10 - - - -
24/03:30am 4.4 NNE 2 4 1017.1 - 0.0 - Cloudy 10 - - - -
24/03:00am 4.6 CALM 0 0 1017.2 - 0.0 - Cloudy 10 - - - -
24/02:30am 4.4 CALM 0 0 1017.4 - 0.0 - Mostly cloudy 10 - - - -
24/02:00am 4.0 CALM 0 0 1017.5 - 0.0 - Cloudy 10 - - - -
24/01:30am 4.4 SE 2 4 1017.7 - 0.0 - Partly cloudy 10 - - - -
24/01:00am 5.4 CALM 0 0 1017.8 - 0.0 - Partly cloudy 10 - - - -
24/12:30am 6.9 SE 4 6 1018.0 - 0.0 - Partly cloudy 10 - - - -
24/12:00am 7.1 SE 5 7 1018.0 - 0.0 - Cloudy 10 - - - -
 
Date/Time
CST
Temp
°C
Wind Pressure Rain since
9am
mm
Weather Cloud Vis
km
Sea
Height
m
Swell
Dir  Spd
kts
Gust
kts
hPa Trend Height
m
Period
s
Dir
23/11:30pm 6.6 SE 1 3 1018.2 - 0.0 - Cloudy 10 - - - -
23/11:00pm 6.0 CALM 0 0 1018.2 - 0.0 - Cloudy 10 - - - -
23/10:30pm 6.0 CALM 0 0 1018.3 - 0.0 - Partly cloudy 10 - - - -
23/10:00pm 6.2 CALM 0 0 1018.5 - 0.0 - Cloudy 10 - - - -
23/09:30pm 6.7 CALM 0 3 1018.5 - 0.0 - Cloudy 10 - - - -

Other Formats:

Comma delimited format used in spreadsheet applications
http://www.bom.gov.au/fwo/IDS60701/IDS60701.94828.axf

JavaScript Object Notation format (JSON) in row-major order
http://www.bom.gov.au/fwo/IDS60701/IDS60701.94828.json